sensor_id;sensor_type;location;lat;lon;timestamp;P1;durP1;ratioP1;P2;durP2;ratioP2
35326;SDS011;21436;52.348;20.928;2023-02-13T00:00:47;60.95;;;22.70;;
35326;SDS011;21436;52.348;20.928;2023-02-13T00:03:23;64.50;;;24.33;;
35326;SDS011;21436;52.348;20.928;2023-02-13T00:05:50;71.55;;;23.10;;
35326;SDS011;21436;52.348;20.928;2023-02-13T00:08:18;63.00;;;22.80;;
35326;SDS011;21436;52.348;20.928;2023-02-13T00:10:46;63.22;;;25.02;;
35326;SDS011;21436;52.348;20.928;2023-02-13T00:13:13;58.70;;;23.58;;
35326;SDS011;21436;52.348;20.928;2023-02-13T00:15:41;60.75;;;23.15;;
35326;SDS011;21436;52.348;20.928;2023-02-13T00:18:09;64.63;;;23.10;;
35326;SDS011;21436;52.348;20.928;2023-02-13T00:20:36;55.38;;;23.90;;
35326;SDS011;21436;52.348;20.928;2023-02-13T00:23:04;58.05;;;22.60;;
35326;SDS011;21436;52.348;20.928;2023-02-13T00:25:32;63.67;;;22.88;;
35326;SDS011;21436;52.348;20.928;2023-02-13T00:27:59;57.50;;;22.25;;
35326;SDS011;21436;52.348;20.928;2023-02-13T00:30:27;57.20;;;21.60;;
35326;SDS011;21436;52.348;20.928;2023-02-13T00:32:55;54.70;;;22.65;;
35326;SDS011;21436;52.348;20.928;2023-02-13T00:35:23;64.88;;;23.63;;
35326;SDS011;21436;52.348;20.928;2023-02-13T00:37:51;59.63;;;23.05;;
35326;SDS011;21436;52.348;20.928;2023-02-13T00:40:23;54.25;;;22.15;;
35326;SDS011;21436;52.348;20.928;2023-02-13T00:42:51;58.13;;;22.67;;
35326;SDS011;21436;52.348;20.928;2023-02-13T00:45:18;56.05;;;21.90;;
35326;SDS011;21436;52.348;20.928;2023-02-13T00:47:46;55.83;;;21.80;;
35326;SDS011;21436;52.348;20.928;2023-02-13T00:50:14;55.35;;;22.38;;
35326;SDS011;21436;52.348;20.928;2023-02-13T00:52:41;51.00;;;22.05;;
35326;SDS011;21436;52.348;20.928;2023-02-13T00:55:11;54.85;;;20.85;;
35326;SDS011;21436;52.348;20.928;2023-02-13T00:57:39;50.70;;;21.45;;
35326;SDS011;21436;52.348;20.928;2023-02-13T01:00:06;51.90;;;21.27;;
35326;SDS011;21436;52.348;20.928;2023-02-13T01:02:34;54.78;;;21.35;;
35326;SDS011;21436;52.348;20.928;2023-02-13T01:05:02;64.00;;;21.65;;
35326;SDS011;21436;52.348;20.928;2023-02-13T01:07:29;61.85;;;25.50;;
35326;SDS011;21436;52.348;20.928;2023-02-13T01:09:57;58.20;;;24.25;;
35326;SDS011;21436;52.348;20.928;2023-02-13T01:12:26;56.75;;;21.08;;
35326;SDS011;21436;52.348;20.928;2023-02-13T01:14:53;46.50;;;20.65;;
35326;SDS011;21436;52.348;20.928;2023-02-13T01:17:21;55.05;;;19.45;;
35326;SDS011;21436;52.348;20.928;2023-02-13T01:19:48;43.35;;;19.48;;
35326;SDS011;21436;52.348;20.928;2023-02-13T01:22:15;54.28;;;21.10;;
35326;SDS011;21436;52.348;20.928;2023-02-13T01:24:43;47.58;;;20.40;;
35326;SDS011;21436;52.348;20.928;2023-02-13T01:27:10;43.60;;;19.67;;
35326;SDS011;21436;52.348;20.928;2023-02-13T01:29:38;45.83;;;19.48;;
35326;SDS011;21436;52.348;20.928;2023-02-13T01:32:05;46.60;;;18.58;;
35326;SDS011;21436;52.348;20.928;2023-02-13T01:34:32;48.15;;;19.65;;
35326;SDS011;21436;52.348;20.928;2023-02-13T01:37:00;47.65;;;18.17;;
35326;SDS011;21436;52.348;20.928;2023-02-13T01:39:27;47.53;;;17.80;;
35326;SDS011;21436;52.348;20.928;2023-02-13T01:41:55;50.75;;;18.50;;
35326;SDS011;21436;52.348;20.928;2023-02-13T01:47:40;41.90;;;16.52;;
35326;SDS011;21436;52.348;20.928;2023-02-13T01:50:27;42.90;;;18.13;;
35326;SDS011;21436;52.348;20.928;2023-02-13T01:53:03;44.65;;;17.38;;
35326;SDS011;21436;52.348;20.928;2023-02-13T01:55:34;39.55;;;17.08;;
35326;SDS011;21436;52.348;20.928;2023-02-13T01:58:11;43.65;;;17.20;;
35326;SDS011;21436;52.348;20.928;2023-02-13T02:00:43;39.00;;;16.07;;
35326;SDS011;21436;52.348;20.928;2023-02-13T02:03:39;43.13;;;17.05;;
35326;SDS011;21436;52.348;20.928;2023-02-13T02:06:10;46.08;;;17.08;;
35326;SDS011;21436;52.348;20.928;2023-02-13T02:08:41;38.90;;;15.93;;
35326;SDS011;21436;52.348;20.928;2023-02-13T02:11:19;37.17;;;16.75;;
35326;SDS011;21436;52.348;20.928;2023-02-13T02:13:51;43.20;;;16.63;;
35326;SDS011;21436;52.348;20.928;2023-02-13T02:16:29;41.53;;;17.08;;
35326;SDS011;21436;52.348;20.928;2023-02-13T02:19:00;40.97;;;17.33;;
35326;SDS011;21436;52.348;20.928;2023-02-13T02:21:40;44.30;;;18.25;;
35326;SDS011;21436;52.348;20.928;2023-02-13T02:33:06;40.80;;;16.02;;
35326;SDS011;21436;52.348;20.928;2023-02-13T02:38:17;39.25;;;15.80;;
35326;SDS011;21436;52.348;20.928;2023-02-13T02:40:56;35.80;;;15.23;;
35326;SDS011;21436;52.348;20.928;2023-02-13T02:54:16;38.05;;;17.08;;
35326;SDS011;21436;52.348;20.928;2023-02-13T02:57:18;39.40;;;18.25;;
35326;SDS011;21436;52.348;20.928;2023-02-13T02:59:55;52.20;;;18.92;;
35326;SDS011;21436;52.348;20.928;2023-02-13T03:02:42;40.28;;;16.58;;
35326;SDS011;21436;52.348;20.928;2023-02-13T03:05:28;39.72;;;15.70;;
35326;SDS011;21436;52.348;20.928;2023-02-13T03:08:16;46.20;;;16.90;;
35326;SDS011;21436;52.348;20.928;2023-02-13T03:11:04;33.70;;;15.20;;
35326;SDS011;21436;52.348;20.928;2023-02-13T03:13:50;44.25;;;16.52;;
35326;SDS011;21436;52.348;20.928;2023-02-13T03:16:19;41.78;;;16.42;;
35326;SDS011;21436;52.348;20.928;2023-02-13T03:19:12;38.60;;;15.80;;
35326;SDS011;21436;52.348;20.928;2023-02-13T03:25:15;40.63;;;16.30;;
35326;SDS011;21436;52.348;20.928;2023-02-13T03:34:12;33.72;;;15.00;;
35326;SDS011;21436;52.348;20.928;2023-02-13T03:36:45;33.92;;;15.98;;
35326;SDS011;21436;52.348;20.928;2023-02-13T03:43:07;35.65;;;16.02;;
35326;SDS011;21436;52.348;20.928;2023-02-13T03:45:17;34.20;;;14.70;;
35326;SDS011;21436;52.348;20.928;2023-02-13T03:48:09;39.53;;;15.73;;
35326;SDS011;21436;52.348;20.928;2023-02-13T03:50:58;38.45;;;16.40;;
35326;SDS011;21436;52.348;20.928;2023-02-13T03:53:27;36.67;;;16.20;;
35326;SDS011;21436;52.348;20.928;2023-02-13T03:55:55;37.67;;;16.17;;
35326;SDS011;21436;52.348;20.928;2023-02-13T03:58:45;33.75;;;15.52;;
35326;SDS011;21436;52.348;20.928;2023-02-13T04:01:35;36.15;;;15.73;;
35326;SDS011;21436;52.348;20.928;2023-02-13T04:06:31;34.67;;;15.82;;
35326;SDS011;21436;52.348;20.928;2023-02-13T04:09:25;35.25;;;15.32;;
35326;SDS011;21436;52.348;20.928;2023-02-13T04:14:49;39.20;;;15.95;;
35326;SDS011;21436;52.348;20.928;2023-02-13T04:17:22;32.40;;;15.65;;
35326;SDS011;21436;52.348;20.928;2023-02-13T04:19:56;35.08;;;16.23;;
35326;SDS011;21436;52.348;20.928;2023-02-13T04:22:23;32.80;;;15.68;;
35326;SDS011;21436;52.348;20.928;2023-02-13T04:24:51;33.38;;;15.20;;
35326;SDS011;21436;52.348;20.928;2023-02-13T04:27:18;33.97;;;14.75;;
35326;SDS011;21436;52.348;20.928;2023-02-13T04:29:46;37.28;;;14.63;;
35326;SDS011;21436;52.348;20.928;2023-02-13T04:32:13;35.05;;;15.75;;
35326;SDS011;21436;52.348;20.928;2023-02-13T04:34:41;34.67;;;15.57;;
35326;SDS011;21436;52.348;20.928;2023-02-13T04:37:09;32.65;;;15.23;;
35326;SDS011;21436;52.348;20.928;2023-02-13T04:39:36;31.55;;;15.32;;
35326;SDS011;21436;52.348;20.928;2023-02-13T04:42:04;34.05;;;16.15;;
35326;SDS011;21436;52.348;20.928;2023-02-13T04:44:31;41.88;;;15.63;;
35326;SDS011;21436;52.348;20.928;2023-02-13T04:46:59;36.42;;;15.60;;
35326;SDS011;21436;52.348;20.928;2023-02-13T04:49:26;37.20;;;16.05;;
35326;SDS011;21436;52.348;20.928;2023-02-13T04:51:54;35.33;;;15.75;;
35326;SDS011;21436;52.348;20.928;2023-02-13T04:54:22;32.35;;;16.05;;
35326;SDS011;21436;52.348;20.928;2023-02-13T04:56:49;35.58;;;16.60;;
35326;SDS011;21436;52.348;20.928;2023-02-13T04:59:16;32.45;;;16.17;;
35326;SDS011;21436;52.348;20.928;2023-02-13T05:01:44;34.97;;;17.40;;
35326;SDS011;21436;52.348;20.928;2023-02-13T05:04:12;33.33;;;15.98;;
35326;SDS011;21436;52.348;20.928;2023-02-13T05:06:42;38.53;;;15.95;;
35326;SDS011;21436;52.348;20.928;2023-02-13T05:09:09;33.83;;;15.45;;
35326;SDS011;21436;52.348;20.928;2023-02-13T05:11:37;34.58;;;15.88;;
35326;SDS011;21436;52.348;20.928;2023-02-13T05:14:04;31.45;;;14.23;;
35326;SDS011;21436;52.348;20.928;2023-02-13T05:16:32;33.65;;;16.02;;
35326;SDS011;21436;52.348;20.928;2023-02-13T05:19:00;39.30;;;16.27;;
35326;SDS011;21436;52.348;20.928;2023-02-13T05:21:27;36.40;;;16.20;;
35326;SDS011;21436;52.348;20.928;2023-02-13T05:24:13;50.78;;;19.13;;
35326;SDS011;21436;52.348;20.928;2023-02-13T05:26:40;48.13;;;21.30;;
35326;SDS011;21436;52.348;20.928;2023-02-13T05:29:09;40.38;;;17.90;;
35326;SDS011;21436;52.348;20.928;2023-02-13T05:31:49;35.22;;;16.85;;
35326;SDS011;21436;52.348;20.928;2023-02-13T05:34:19;38.28;;;17.35;;
35326;SDS011;21436;52.348;20.928;2023-02-13T05:36:47;36.83;;;16.83;;
35326;SDS011;21436;52.348;20.928;2023-02-13T05:39:15;31.42;;;16.20;;
35326;SDS011;21436;52.348;20.928;2023-02-13T05:41:43;33.85;;;15.80;;
35326;SDS011;21436;52.348;20.928;2023-02-13T05:44:11;44.47;;;18.10;;
35326;SDS011;21436;52.348;20.928;2023-02-13T05:46:39;35.90;;;15.10;;
35326;SDS011;21436;52.348;20.928;2023-02-13T05:49:08;31.17;;;14.40;;
35326;SDS011;21436;52.348;20.928;2023-02-13T05:51:36;40.10;;;17.23;;
35326;SDS011;21436;52.348;20.928;2023-02-13T05:54:03;32.97;;;15.63;;
35326;SDS011;21436;52.348;20.928;2023-02-13T05:56:31;31.05;;;14.63;;
35326;SDS011;21436;52.348;20.928;2023-02-13T05:58:58;32.20;;;16.15;;
35326;SDS011;21436;52.348;20.928;2023-02-13T06:01:26;40.60;;;15.98;;
35326;SDS011;21436;52.348;20.928;2023-02-13T06:03:53;34.17;;;14.98;;
35326;SDS011;21436;52.348;20.928;2023-02-13T06:06:24;34.85;;;16.38;;
35326;SDS011;21436;52.348;20.928;2023-02-13T06:08:51;33.90;;;16.45;;
35326;SDS011;21436;52.348;20.928;2023-02-13T06:11:19;34.97;;;16.45;;
35326;SDS011;21436;52.348;20.928;2023-02-13T06:13:47;37.70;;;15.95;;
35326;SDS011;21436;52.348;20.928;2023-02-13T06:16:14;32.30;;;15.48;;
35326;SDS011;21436;52.348;20.928;2023-02-13T06:18:42;36.22;;;16.17;;
35326;SDS011;21436;52.348;20.928;2023-02-13T06:21:09;28.50;;;13.68;;
35326;SDS011;21436;52.348;20.928;2023-02-13T06:23:37;33.35;;;14.93;;
35326;SDS011;21436;52.348;20.928;2023-02-13T06:26:05;33.95;;;15.07;;
35326;SDS011;21436;52.348;20.928;2023-02-13T06:28:34;30.88;;;15.48;;
35326;SDS011;21436;52.348;20.928;2023-02-13T06:31:01;36.53;;;16.00;;
35326;SDS011;21436;52.348;20.928;2023-02-13T06:33:29;39.47;;;15.82;;
35326;SDS011;21436;52.348;20.928;2023-02-13T06:35:56;30.95;;;15.32;;
35326;SDS011;21436;52.348;20.928;2023-02-13T06:38:24;31.30;;;15.00;;
35326;SDS011;21436;52.348;20.928;2023-02-13T06:40:51;32.50;;;15.18;;
35326;SDS011;21436;52.348;20.928;2023-02-13T06:43:19;31.05;;;14.68;;
35326;SDS011;21436;52.348;20.928;2023-02-13T06:45:46;30.50;;;13.98;;
35326;SDS011;21436;52.348;20.928;2023-02-13T06:48:14;33.38;;;14.55;;
35326;SDS011;21436;52.348;20.928;2023-02-13T06:50:41;30.92;;;15.30;;
35326;SDS011;21436;52.348;20.928;2023-02-13T06:53:08;36.92;;;18.00;;
35326;SDS011;21436;52.348;20.928;2023-02-13T06:55:36;33.95;;;14.68;;
35326;SDS011;21436;52.348;20.928;2023-02-13T06:58:05;29.40;;;14.25;;
35326;SDS011;21436;52.348;20.928;2023-02-13T07:00:32;27.33;;;14.00;;
35326;SDS011;21436;52.348;20.928;2023-02-13T07:03:00;24.42;;;12.60;;
35326;SDS011;21436;52.348;20.928;2023-02-13T07:05:31;29.58;;;13.13;;
35326;SDS011;21436;52.348;20.928;2023-02-13T07:07:59;29.45;;;13.23;;
35326;SDS011;21436;52.348;20.928;2023-02-13T07:10:26;26.30;;;12.75;;
35326;SDS011;21436;52.348;20.928;2023-02-13T07:12:54;26.10;;;12.45;;
35326;SDS011;21436;52.348;20.928;2023-02-13T07:15:31;27.70;;;12.70;;
35326;SDS011;21436;52.348;20.928;2023-02-13T07:18:00;27.00;;;13.00;;
35326;SDS011;21436;52.348;20.928;2023-02-13T07:20:27;27.80;;;12.63;;
35326;SDS011;21436;52.348;20.928;2023-02-13T07:22:59;26.67;;;13.15;;
35326;SDS011;21436;52.348;20.928;2023-02-13T07:25:28;27.83;;;12.43;;
35326;SDS011;21436;52.348;20.928;2023-02-13T07:28:02;24.75;;;11.82;;
35326;SDS011;21436;52.348;20.928;2023-02-13T07:30:31;29.20;;;11.73;;
35326;SDS011;21436;52.348;20.928;2023-02-13T07:33:02;24.33;;;11.05;;
35326;SDS011;21436;52.348;20.928;2023-02-13T07:35:30;24.65;;;11.23;;
35326;SDS011;21436;52.348;20.928;2023-02-13T07:37:58;28.35;;;10.95;;
35326;SDS011;21436;52.348;20.928;2023-02-13T07:40:26;23.35;;;11.63;;
35326;SDS011;21436;52.348;20.928;2023-02-13T07:42:54;31.48;;;11.27;;
35326;SDS011;21436;52.348;20.928;2023-02-13T07:45:22;23.38;;;12.30;;
35326;SDS011;21436;52.348;20.928;2023-02-13T07:47:50;21.40;;;10.50;;
35326;SDS011;21436;52.348;20.928;2023-02-13T07:50:17;27.02;;;11.02;;
35326;SDS011;21436;52.348;20.928;2023-02-13T07:52:51;21.10;;;10.43;;
35326;SDS011;21436;52.348;20.928;2023-02-13T07:55:19;25.10;;;11.65;;
35326;SDS011;21436;52.348;20.928;2023-02-13T07:57:47;25.65;;;10.43;;
35326;SDS011;21436;52.348;20.928;2023-02-13T08:00:15;26.05;;;11.65;;
35326;SDS011;21436;52.348;20.928;2023-02-13T08:02:43;21.52;;;10.30;;
35326;SDS011;21436;52.348;20.928;2023-02-13T08:05:11;20.35;;;9.95;;
35326;SDS011;21436;52.348;20.928;2023-02-13T08:07:39;27.17;;;11.20;;
35326;SDS011;21436;52.348;20.928;2023-02-13T08:10:07;22.00;;;10.23;;
35326;SDS011;21436;52.348;20.928;2023-02-13T08:12:53;28.92;;;10.95;;
35326;SDS011;21436;52.348;20.928;2023-02-13T08:15:21;21.65;;;10.80;;
35326;SDS011;21436;52.348;20.928;2023-02-13T08:17:50;19.08;;;10.40;;
35326;SDS011;21436;52.348;20.928;2023-02-13T08:20:17;18.73;;;10.73;;
35326;SDS011;21436;52.348;20.928;2023-02-13T08:22:45;26.05;;;11.57;;
35326;SDS011;21436;52.348;20.928;2023-02-13T08:25:12;23.83;;;10.90;;
35326;SDS011;21436;52.348;20.928;2023-02-13T08:27:40;24.77;;;10.90;;
35326;SDS011;21436;52.348;20.928;2023-02-13T08:30:08;25.30;;;11.55;;
35326;SDS011;21436;52.348;20.928;2023-02-13T08:32:36;20.85;;;10.40;;
35326;SDS011;21436;52.348;20.928;2023-02-13T08:35:19;21.63;;;11.25;;
35326;SDS011;21436;52.348;20.928;2023-02-13T08:37:46;20.65;;;10.27;;
35326;SDS011;21436;52.348;20.928;2023-02-13T08:40:14;17.50;;;10.38;;
35326;SDS011;21436;52.348;20.928;2023-02-13T08:42:41;20.92;;;10.68;;
35326;SDS011;21436;52.348;20.928;2023-02-13T08:45:09;21.73;;;10.82;;
35326;SDS011;21436;52.348;20.928;2023-02-13T08:47:38;17.73;;;9.23;;
35326;SDS011;21436;52.348;20.928;2023-02-13T08:50:06;23.13;;;10.85;;
35326;SDS011;21436;52.348;20.928;2023-02-13T08:52:34;16.27;;;9.20;;
35326;SDS011;21436;52.348;20.928;2023-02-13T08:55:01;19.55;;;10.07;;
35326;SDS011;21436;52.348;20.928;2023-02-13T08:57:29;15.70;;;9.15;;
35326;SDS011;21436;52.348;20.928;2023-02-13T08:59:57;16.60;;;9.18;;
35326;SDS011;21436;52.348;20.928;2023-02-13T09:02:25;16.17;;;9.05;;
35326;SDS011;21436;52.348;20.928;2023-02-13T09:04:52;18.67;;;9.30;;
35326;SDS011;21436;52.348;20.928;2023-02-13T09:07:19;20.15;;;10.23;;
35326;SDS011;21436;52.348;20.928;2023-02-13T09:09:46;17.30;;;9.10;;
35326;SDS011;21436;52.348;20.928;2023-02-13T09:12:14;19.70;;;10.65;;
35326;SDS011;21436;52.348;20.928;2023-02-13T09:14:41;18.63;;;9.98;;
35326;SDS011;21436;52.348;20.928;2023-02-13T09:17:09;25.02;;;10.32;;
35326;SDS011;21436;52.348;20.928;2023-02-13T09:19:37;19.35;;;9.45;;
35326;SDS011;21436;52.348;20.928;2023-02-13T09:22:04;21.30;;;10.43;;
35326;SDS011;21436;52.348;20.928;2023-02-13T09:24:32;19.58;;;8.90;;
35326;SDS011;21436;52.348;20.928;2023-02-13T09:26:59;18.52;;;8.77;;
35326;SDS011;21436;52.348;20.928;2023-02-13T09:29:27;16.63;;;8.52;;
35326;SDS011;21436;52.348;20.928;2023-02-13T09:31:57;17.15;;;8.57;;
35326;SDS011;21436;52.348;20.928;2023-02-13T09:34:25;13.80;;;7.70;;
35326;SDS011;21436;52.348;20.928;2023-02-13T09:36:53;15.52;;;7.50;;
35326;SDS011;21436;52.348;20.928;2023-02-13T09:39:20;16.67;;;8.02;;
35326;SDS011;21436;52.348;20.928;2023-02-13T09:41:49;18.50;;;8.10;;
35326;SDS011;21436;52.348;20.928;2023-02-13T09:49:55;18.17;;;7.97;;
35326;SDS011;21436;52.348;20.928;2023-02-13T09:52:27;17.55;;;8.68;;
35326;SDS011;21436;52.348;20.928;2023-02-13T09:54:59;16.52;;;8.40;;
35326;SDS011;21436;52.348;20.928;2023-02-13T09:57:34;18.90;;;8.68;;
35326;SDS011;21436;52.348;20.928;2023-02-13T10:00:05;19.20;;;8.75;;
35326;SDS011;21436;52.348;20.928;2023-02-13T10:02:49;16.35;;;8.18;;
35326;SDS011;21436;52.348;20.928;2023-02-13T10:08:05;19.67;;;9.10;;
35326;SDS011;21436;52.348;20.928;2023-02-13T10:16:34;20.13;;;9.43;;
35326;SDS011;21436;52.348;20.928;2023-02-13T10:21:59;16.15;;;9.18;;
35326;SDS011;21436;52.348;20.928;2023-02-13T10:24:51;19.33;;;9.00;;
35326;SDS011;21436;52.348;20.928;2023-02-13T10:27:24;20.55;;;10.65;;
35326;SDS011;21436;52.348;20.928;2023-02-13T10:32:51;17.05;;;10.30;;
35326;SDS011;21436;52.348;20.928;2023-02-13T10:36:30;23.08;;;10.05;;
35326;SDS011;21436;52.348;20.928;2023-02-13T11:01:30;23.58;;;11.07;;
35326;SDS011;21436;52.348;20.928;2023-02-13T11:04:04;21.90;;;11.57;;
35326;SDS011;21436;52.348;20.928;2023-02-13T11:06:45;19.63;;;11.43;;
35326;SDS011;21436;52.348;20.928;2023-02-13T11:09:21;21.00;;;10.40;;
35326;SDS011;21436;52.348;20.928;2023-02-13T11:11:50;18.60;;;10.23;;
35326;SDS011;21436;52.348;20.928;2023-02-13T11:14:19;21.55;;;12.13;;
35326;SDS011;21436;52.348;20.928;2023-02-13T11:19:34;30.00;;;11.80;;
35326;SDS011;21436;52.348;20.928;2023-02-13T11:22:12;26.35;;;12.45;;
35326;SDS011;21436;52.348;20.928;2023-02-13T11:24:50;24.40;;;12.20;;
35326;SDS011;21436;52.348;20.928;2023-02-13T11:27:22;23.00;;;12.13;;
35326;SDS011;21436;52.348;20.928;2023-02-13T11:29:54;20.17;;;11.82;;
35326;SDS011;21436;52.348;20.928;2023-02-13T11:32:24;23.67;;;11.93;;
35326;SDS011;21436;52.348;20.928;2023-02-13T11:40:42;19.95;;;11.40;;
35326;SDS011;21436;52.348;20.928;2023-02-13T11:43:27;21.88;;;11.55;;
35326;SDS011;21436;52.348;20.928;2023-02-13T11:46:00;23.13;;;11.93;;
35326;SDS011;21436;52.348;20.928;2023-02-13T11:48:29;24.83;;;12.13;;
35326;SDS011;21436;52.348;20.928;2023-02-13T11:50:57;24.85;;;11.70;;
35326;SDS011;21436;52.348;20.928;2023-02-13T11:53:29;20.27;;;11.93;;
35326;SDS011;21436;52.348;20.928;2023-02-13T11:56:12;23.35;;;12.30;;
35326;SDS011;21436;52.348;20.928;2023-02-13T11:58:41;23.70;;;12.48;;
35326;SDS011;21436;52.348;20.928;2023-02-13T12:06:57;20.67;;;12.15;;
35326;SDS011;21436;52.348;20.928;2023-02-13T12:09:25;27.27;;;14.13;;
35326;SDS011;21436;52.348;20.928;2023-02-13T12:11:56;29.40;;;13.55;;
35326;SDS011;21436;52.348;20.928;2023-02-13T12:14:26;27.70;;;15.05;;
35326;SDS011;21436;52.348;20.928;2023-02-13T12:16:59;22.73;;;12.50;;
35326;SDS011;21436;52.348;20.928;2023-02-13T12:19:39;24.48;;;12.93;;
35326;SDS011;21436;52.348;20.928;2023-02-13T12:45:13;20.38;;;9.23;;
35326;SDS011;21436;52.348;20.928;2023-02-13T12:59:04;14.32;;;7.82;;
35326;SDS011;21436;52.348;20.928;2023-02-13T13:16:36;12.23;;;6.63;;
35326;SDS011;21436;52.348;20.928;2023-02-13T13:28:41;12.13;;;5.78;;
35326;SDS011;21436;52.348;20.928;2023-02-13T13:31:10;12.10;;;5.47;;
35326;SDS011;21436;52.348;20.928;2023-02-13T13:33:40;11.82;;;5.45;;
35326;SDS011;21436;52.348;20.928;2023-02-13T13:38:59;11.40;;;5.00;;
35326;SDS011;21436;52.348;20.928;2023-02-13T13:41:50;11.05;;;5.68;;
35326;SDS011;21436;52.348;20.928;2023-02-13T13:50:41;8.55;;;4.28;;
35326;SDS011;21436;52.348;20.928;2023-02-13T13:53:06;12.57;;;4.93;;
35326;SDS011;21436;52.348;20.928;2023-02-13T13:58:23;8.82;;;4.22;;
35326;SDS011;21436;52.348;20.928;2023-02-13T14:03:58;10.02;;;4.20;;
35326;SDS011;21436;52.348;20.928;2023-02-13T14:14:52;10.48;;;4.95;;
35326;SDS011;21436;52.348;20.928;2023-02-13T14:20:19;13.02;;;5.53;;
35326;SDS011;21436;52.348;20.928;2023-02-13T14:22:48;12.10;;;5.65;;
35326;SDS011;21436;52.348;20.928;2023-02-13T14:25:28;10.48;;;5.68;;
35326;SDS011;21436;52.348;20.928;2023-02-13T14:28:02;9.70;;;5.18;;
35326;SDS011;21436;52.348;20.928;2023-02-13T14:30:34;13.35;;;6.03;;
35326;SDS011;21436;52.348;20.928;2023-02-13T14:33:04;12.20;;;6.03;;
35326;SDS011;21436;52.348;20.928;2023-02-13T14:35:34;14.82;;;6.82;;
35326;SDS011;21436;52.348;20.928;2023-02-13T14:38:04;13.43;;;6.55;;
35326;SDS011;21436;52.348;20.928;2023-02-13T14:40:49;11.75;;;6.53;;
35326;SDS011;21436;52.348;20.928;2023-02-13T14:45:55;14.30;;;7.03;;
35326;SDS011;21436;52.348;20.928;2023-02-13T14:51:13;12.73;;;6.57;;
35326;SDS011;21436;52.348;20.928;2023-02-13T14:54:08;13.95;;;6.68;;
35326;SDS011;21436;52.348;20.928;2023-02-13T14:56:41;19.65;;;10.05;;
35326;SDS011;21436;52.348;20.928;2023-02-13T14:59:18;17.70;;;7.25;;
35326;SDS011;21436;52.348;20.928;2023-02-13T15:05:01;12.55;;;7.07;;
35326;SDS011;21436;52.348;20.928;2023-02-13T15:07:34;16.23;;;7.38;;
35326;SDS011;21436;52.348;20.928;2023-02-13T15:10:05;12.88;;;6.82;;
35326;SDS011;21436;52.348;20.928;2023-02-13T15:12:58;15.23;;;7.32;;
35326;SDS011;21436;52.348;20.928;2023-02-13T15:15:36;13.32;;;7.35;;
35326;SDS011;21436;52.348;20.928;2023-02-13T15:18:07;13.30;;;7.40;;
35326;SDS011;21436;52.348;20.928;2023-02-13T15:20:36;16.70;;;9.67;;
35326;SDS011;21436;52.348;20.928;2023-02-13T15:23:05;13.15;;;7.43;;
35326;SDS011;21436;52.348;20.928;2023-02-13T15:25:37;13.70;;;8.63;;
35326;SDS011;21436;52.348;20.928;2023-02-13T15:28:16;19.70;;;9.10;;
35326;SDS011;21436;52.348;20.928;2023-02-13T15:30:56;14.98;;;8.15;;
35326;SDS011;21436;52.348;20.928;2023-02-13T15:33:27;20.70;;;8.80;;
35326;SDS011;21436;52.348;20.928;2023-02-13T15:36:00;20.48;;;9.88;;
35326;SDS011;21436;52.348;20.928;2023-02-13T15:38:32;20.60;;;10.18;;
35326;SDS011;21436;52.348;20.928;2023-02-13T15:41:10;21.95;;;10.40;;
35326;SDS011;21436;52.348;20.928;2023-02-13T15:43:55;18.67;;;8.93;;
35326;SDS011;21436;52.348;20.928;2023-02-13T15:46:36;18.63;;;9.70;;
35326;SDS011;21436;52.348;20.928;2023-02-13T15:49:10;23.60;;;10.30;;
35326;SDS011;21436;52.348;20.928;2023-02-13T15:51:42;16.13;;;8.68;;
35326;SDS011;21436;52.348;20.928;2023-02-13T15:57:04;19.67;;;9.63;;
35326;SDS011;21436;52.348;20.928;2023-02-13T15:59:35;19.35;;;10.48;;
35326;SDS011;21436;52.348;20.928;2023-02-13T16:02:05;17.05;;;9.57;;
35326;SDS011;21436;52.348;20.928;2023-02-13T16:04:39;19.10;;;10.10;;
35326;SDS011;21436;52.348;20.928;2023-02-13T16:07:08;23.95;;;11.27;;
35326;SDS011;21436;52.348;20.928;2023-02-13T16:09:38;23.25;;;12.32;;
35326;SDS011;21436;52.348;20.928;2023-02-13T16:14:57;18.42;;;8.88;;
35326;SDS011;21436;52.348;20.928;2023-02-13T16:17:32;20.38;;;10.05;;
35326;SDS011;21436;52.348;20.928;2023-02-13T16:22:38;24.70;;;11.02;;
35326;SDS011;21436;52.348;20.928;2023-02-13T16:27:42;18.55;;;9.43;;
35326;SDS011;21436;52.348;20.928;2023-02-13T16:30:20;17.52;;;9.55;;
35326;SDS011;21436;52.348;20.928;2023-02-13T16:35:43;19.50;;;10.32;;
35326;SDS011;21436;52.348;20.928;2023-02-13T16:41:03;20.30;;;11.30;;
35326;SDS011;21436;52.348;20.928;2023-02-13T16:43:50;18.95;;;8.90;;
35326;SDS011;21436;52.348;20.928;2023-02-13T16:46:23;18.40;;;8.25;;
35326;SDS011;21436;52.348;20.928;2023-02-13T16:51:35;25.05;;;11.55;;
35326;SDS011;21436;52.348;20.928;2023-02-13T16:56:41;23.40;;;10.05;;
35326;SDS011;21436;52.348;20.928;2023-02-13T17:01:43;20.83;;;10.00;;
35326;SDS011;21436;52.348;20.928;2023-02-13T17:04:21;22.27;;;12.55;;
35326;SDS011;21436;52.348;20.928;2023-02-13T17:06:55;19.90;;;9.27;;
35326;SDS011;21436;52.348;20.928;2023-02-13T17:09:23;19.98;;;9.00;;
35326;SDS011;21436;52.348;20.928;2023-02-13T17:11:52;14.30;;;8.02;;
35326;SDS011;21436;52.348;20.928;2023-02-13T17:14:20;10.90;;;6.80;;
35326;SDS011;21436;52.348;20.928;2023-02-13T17:16:47;17.33;;;9.05;;
35326;SDS011;21436;52.348;20.928;2023-02-13T17:19:15;14.73;;;7.40;;
35326;SDS011;21436;52.348;20.928;2023-02-13T17:21:42;16.13;;;8.45;;
35326;SDS011;21436;52.348;20.928;2023-02-13T17:24:15;19.40;;;7.30;;
35326;SDS011;21436;52.348;20.928;2023-02-13T17:26:43;17.80;;;7.68;;
35326;SDS011;21436;52.348;20.928;2023-02-13T17:29:11;14.70;;;7.00;;
35326;SDS011;21436;52.348;20.928;2023-02-13T17:31:38;14.20;;;6.90;;
35326;SDS011;21436;52.348;20.928;2023-02-13T17:34:06;17.15;;;8.60;;
35326;SDS011;21436;52.348;20.928;2023-02-13T17:36:34;22.08;;;6.85;;
35326;SDS011;21436;52.348;20.928;2023-02-13T17:39:02;15.55;;;6.13;;
35326;SDS011;21436;52.348;20.928;2023-02-13T17:41:29;17.42;;;6.75;;
35326;SDS011;21436;52.348;20.928;2023-02-13T17:43:57;16.05;;;6.18;;
35326;SDS011;21436;52.348;20.928;2023-02-13T17:46:24;17.23;;;7.30;;
35326;SDS011;21436;52.348;20.928;2023-02-13T17:48:52;15.02;;;7.13;;
35326;SDS011;21436;52.348;20.928;2023-02-13T17:51:20;16.38;;;7.75;;
35326;SDS011;21436;52.348;20.928;2023-02-13T17:53:47;15.40;;;7.57;;
35326;SDS011;21436;52.348;20.928;2023-02-13T17:56:16;17.02;;;7.60;;
35326;SDS011;21436;52.348;20.928;2023-02-13T17:58:43;18.65;;;7.70;;
35326;SDS011;21436;52.348;20.928;2023-02-13T18:01:11;17.65;;;9.80;;
35326;SDS011;21436;52.348;20.928;2023-02-13T18:03:39;18.20;;;8.00;;
35326;SDS011;21436;52.348;20.928;2023-02-13T18:06:10;15.45;;;7.85;;
35326;SDS011;21436;52.348;20.928;2023-02-13T18:08:39;17.00;;;8.10;;
35326;SDS011;21436;52.348;20.928;2023-02-13T18:11:10;20.55;;;9.02;;
35326;SDS011;21436;52.348;20.928;2023-02-13T18:13:38;23.00;;;11.88;;
35326;SDS011;21436;52.348;20.928;2023-02-13T18:16:09;15.70;;;9.15;;